Time;durP1;ratioP1;P1;durP2;ratioP2;P2;SDS_P1;SDS_P2;PMS_P1;PMS_P2;Temp;Humidity;BMP_temperature;BMP_pressure;BME280_temperature;BME280_humidity;BME280_pressure;Samples;Min_cycle;Max_cycle;Signal;HPM_P1;HPM_P2
2022/03/26 00:00:51;;;;;;;58.33;26.93;;;;;;;-1.25;100.00;101338.44;1735004;82;21018;-62
2022/03/26 00:03:19;;;;;;;54.23;26.40;;;;;;;-1.27;100.00;101333.77;1734755;83;21046;-62
2022/03/26 00:05:46;;;;;;;63.90;26.93;;;;;;;-1.32;100.00;101331.14;1734770;83;21014;-62
2022/03/26 00:08:14;;;;;;;58.97;27.40;;;;;;;-1.35;100.00;101333.62;1735054;83;21081;-62
2022/03/26 00:10:44;;;;;;;67.33;29.73;;;;;;;-1.31;100.00;101330.75;1734629;82;21049;-62
2022/03/26 00:13:11;;;;;;;68.07;28.23;;;;;;;-1.34;100.00;101331.95;1735480;83;21042;-62
2022/03/26 00:15:39;;;;;;;65.17;30.03;;;;;;;-1.35;100.00;101334.05;1734766;83;21109;-62
2022/03/26 00:18:07;;;;;;;57.03;27.23;;;;;;;-1.34;100.00;101329.42;1734645;83;21074;-62
2022/03/26 00:20:35;;;;;;;69.03;30.30;;;;;;;-1.36;100.00;101328.12;1735023;83;21022;-62
2022/03/26 00:23:02;;;;;;;71.40;31.00;;;;;;;-1.44;100.00;101329.66;1734757;82;21109;-62
2022/03/26 00:25:29;;;;;;;71.93;31.67;;;;;;;-1.49;100.00;101326.21;1734953;83;21046;-62
2022/03/26 00:27:57;;;;;;;67.77;31.73;;;;;;;-1.55;100.00;101319.38;1734731;83;21053;-62
2022/03/26 00:30:24;;;;;;;69.33;31.87;;;;;;;-1.55;100.00;101320.63;1734768;82;21071;-62
2022/03/26 00:32:53;;;;;;;68.57;32.17;;;;;;;-1.56;100.00;101320.20;1714676;83;21082;-62
2022/03/26 00:35:20;;;;;;;71.47;32.33;;;;;;;-1.55;100.00;101328.63;1702783;84;21007;-61
2022/03/26 00:37:47;;;;;;;70.73;33.53;;;;;;;-1.63;100.00;101327.21;1702450;84;21035;-62
2022/03/26 00:40:15;;;;;;;74.40;33.17;;;;;;;-1.63;100.00;101322.16;1702424;83;21050;-62
2022/03/26 00:42:42;;;;;;;66.07;28.93;;;;;;;-1.64;100.00;101328.05;1702496;84;21062;-62
2022/03/26 00:45:10;;;;;;;65.63;30.73;;;;;;;-1.69;100.00;101321.63;1702617;84;21141;-62
2022/03/26 00:47:39;;;;;;;73.70;32.07;;;;;;;-1.66;100.00;101333.48;1702520;84;21589;-61
2022/03/26 00:50:07;;;;;;;74.80;32.17;;;;;;;-1.67;100.00;101333.87;1702515;84;21050;-62
2022/03/26 00:52:34;;;;;;;68.60;30.77;;;;;;;-1.69;100.00;101328.36;1702717;84;21083;-61
2022/03/26 00:55:03;;;;;;;70.37;32.13;;;;;;;-1.67;100.00;101328.81;1702488;84;21586;-62
2022/03/26 00:57:31;;;;;;;85.63;34.83;;;;;;;-1.66;100.00;101328.02;1702704;84;21047;-62
2022/03/26 00:59:58;;;;;;;78.30;36.77;;;;;;;-1.71;100.00;101320.75;1702495;84;21106;-62
2022/03/26 01:02:26;;;;;;;88.93;38.80;;;;;;;-1.72;100.00;101329.58;1702978;84;21125;-62
2022/03/26 01:04:54;;;;;;;93.73;41.73;;;;;;;-1.78;100.00;101322.73;1702431;83;21055;-62
2022/03/26 01:07:21;;;;;;;114.77;50.87;;;;;;;-1.82;100.00;101331.91;1702482;84;21591;-62
2022/03/26 01:09:48;;;;;;;143.37;57.13;;;;;;;-1.90;100.00;101327.11;1702700;84;21058;-62
2022/03/26 01:12:17;;;;;;;138.43;56.80;;;;;;;-2.02;100.00;101325.19;1702412;84;21531;-61
2022/03/26 01:14:45;;;;;;;127.33;51.27;;;;;;;-2.08;100.00;101326.33;1702701;84;21503;-61
2022/03/26 01:17:12;;;;;;;105.47;46.90;;;;;;;-2.11;100.00;101322.88;1702330;84;21098;-64
2022/03/26 01:19:41;;;;;;;106.00;45.53;;;;;;;-2.14;100.00;101329.14;1702668;84;21050;-61
2022/03/26 01:22:08;;;;;;;101.33;44.57;;;;;;;-2.19;100.00;101328.17;1702478;84;21090;-60
2022/03/26 01:24:37;;;;;;;105.40;44.80;;;;;;;-2.20;100.00;101327.75;1702372;84;21039;-61
2022/03/26 01:27:07;;;;;;;116.90;47.20;;;;;;;-2.17;100.00;101326.15;1702685;84;21046;-61
2022/03/26 01:29:40;;;;;;;107.57;44.87;;;;;;;-2.13;100.00;101324.52;1702711;84;21026;-62
2022/03/26 01:32:09;;;;;;;98.53;43.97;;;;;;;-2.11;100.00;101325.41;1703526;83;21144;-62
2022/03/26 01:34:37;;;;;;;100.20;43.37;;;;;;;-2.17;100.00;101331.19;1708207;84;21506;-62
2022/03/26 01:37:05;;;;;;;100.73;42.80;;;;;;;-2.19;100.00;101331.54;1708228;84;20998;-61
2022/03/26 01:39:33;;;;;;;94.37;42.90;;;;;;;-2.23;100.00;101334.43;1708343;84;21025;-62
2022/03/26 01:42:06;;;;;;;97.47;43.20;;;;;;;-2.30;100.00;101330.05;1708130;84;21081;-61
2022/03/26 01:44:37;;;;;;;94.07;41.60;;;;;;;-2.34;100.00;101325.77;1708558;84;21514;-61
2022/03/26 01:47:05;;;;;;;96.60;40.47;;;;;;;-2.32;100.00;101329.59;1708691;84;21061;-61
2022/03/26 01:49:33;;;;;;;96.47;41.63;;;;;;;-2.35;100.00;101321.94;1708333;84;21032;-61
2022/03/26 01:52:04;;;;;;;89.37;39.63;;;;;;;-2.35;100.00;101321.94;1708253;84;21022;-61
2022/03/26 01:54:32;;;;;;;94.00;40.23;;;;;;;-2.30;100.00;101325.43;1708367;84;21022;-61
2022/03/26 01:57:00;;;;;;;84.67;39.20;;;;;;;-2.36;100.00;101322.36;1708235;84;21033;-61
2022/03/26 01:59:28;;;;;;;91.20;39.07;;;;;;;-2.36;100.00;101328.66;1707985;84;21057;-61
2022/03/26 02:01:55;;;;;;;96.33;40.83;;;;;;;-2.29;100.00;101322.95;1708308;84;21008;-61
2022/03/26 02:04:25;;;;;;;94.47;40.10;;;;;;;-2.26;100.00;101328.05;1708060;84;21064;-61
2022/03/26 02:06:53;;;;;;;95.53;40.17;;;;;;;-2.27;100.00;101317.91;1708044;84;21002;-61
2022/03/26 02:09:22;;;;;;;89.50;37.80;;;;;;;-2.31;100.00;101323.70;1708271;84;21062;-61
2022/03/26 02:11:49;;;;;;;84.33;38.40;;;;;;;-2.32;100.00;101315.72;1708097;84;21076;-61
2022/03/26 02:14:16;;;;;;;92.83;37.50;;;;;;;-2.29;100.00;101319.16;1708371;84;21081;-62
2022/03/26 02:16:44;;;;;;;87.33;37.50;;;;;;;-2.27;100.00;101318.79;1708425;84;21664;-61
2022/03/26 02:19:13;;;;;;;92.30;39.47;;;;;;;-2.28;100.00;101316.23;1707991;84;21013;-61
2022/03/26 02:21:41;;;;;;;84.00;35.30;;;;;;;-2.26;100.00;101321.73;1699922;84;21001;-63
2022/03/26 02:24:09;;;;;;;80.10;35.83;;;;;;;-2.32;100.00;101322.02;1695631;84;22214;-61
2022/03/26 02:26:38;;;;;;;78.80;36.07;;;;;;;-2.31;100.00;101314.88;1687203;84;21089;-61
2022/03/26 02:29:12;;;;;;;78.40;35.60;;;;;;;-2.32;100.00;101319.50;1693332;83;21045;-62
2022/03/26 02:31:39;;;;;;;80.05;35.55;;;;;;;-2.35;100.00;101311.86;1694512;83;21096;-62
2022/03/26 02:34:08;;;;;;;80.37;35.43;;;;;;;-2.32;100.00;101315.30;1722643;81;21015;-61
2022/03/26 02:36:35;;;;;;;84.23;35.70;;;;;;;-2.36;100.00;101318.58;1726640;83;20995;-62
2022/03/26 02:39:06;;;;;;;81.57;33.37;;;;;;;-2.40;100.00;101311.77;1733947;83;21038;-62
2022/03/26 02:41:34;;;;;;;73.23;32.67;;;;;;;-2.45;100.00;101317.97;1730273;83;21030;-61
2022/03/26 02:44:04;;;;;;;84.13;34.57;;;;;;;-2.47;100.00;101317.50;1730223;82;21042;-61
2022/03/26 02:46:31;;;;;;;71.70;33.43;;;;;;;-2.44;100.00;101315.03;1739581;82;20953;-62
2022/03/26 02:48:58;;;;;;;79.67;33.20;;;;;;;-2.46;100.00;101311.63;1736175;82;21492;-62
2022/03/26 02:51:26;;;;;;;78.63;33.97;;;;;;;-2.44;100.00;101313.77;1741671;82;21176;-61
2022/03/26 02:53:55;;;;;;;83.13;35.50;;;;;;;-2.45;100.00;101310.41;1739355;82;20975;-61
2022/03/26 02:56:22;;;;;;;75.80;34.20;;;;;;;-2.48;100.00;101316.62;1741693;82;20989;-61
2022/03/26 02:58:50;;;;;;;76.30;35.10;;;;;;;-2.49;100.00;101316.62;1740796;81;21083;-61
2022/03/26 03:01:17;;;;;;;84.73;36.73;;;;;;;-2.47;100.00;101313.72;1741393;82;21015;-62
2022/03/26 03:03:46;;;;;;;83.50;38.33;;;;;;;-2.54;100.00;101316.49;1740797;82;21495;-61
2022/03/26 03:06:13;;;;;;;87.07;38.73;;;;;;;-2.59;100.00;101318.08;1736985;82;20974;-61
2022/03/26 03:08:41;;;;;;;77.90;36.47;;;;;;;-2.64;100.00;101321.73;1730617;82;21018;-61
2022/03/26 03:11:09;;;;;;;78.93;33.10;;;;;;;-2.74;100.00;101316.45;1726668;83;21018;-61
2022/03/26 03:13:39;;;;;;;74.83;32.67;;;;;;;-2.82;100.00;101321.30;1731831;83;21089;-61
2022/03/26 03:16:06;;;;;;;73.00;31.00;;;;;;;-2.86;100.00;101317.88;1726771;83;21017;-62
2022/03/26 03:18:35;;;;;;;70.40;31.23;;;;;;;-2.91;100.00;101319.84;1730696;83;20999;-62
2022/03/26 03:21:02;;;;;;;68.10;30.67;;;;;;;-2.87;100.00;101321.20;1728501;83;21539;-61
2022/03/26 03:23:30;;;;;;;70.43;31.80;;;;;;;-2.85;100.00;101313.27;1725221;83;21003;-62
2022/03/26 03:25:58;;;;;;;74.70;31.50;;;;;;;-2.79;100.00;101315.50;1726613;83;21058;-61
2022/03/26 03:28:27;;;;;;;76.80;32.87;;;;;;;-2.76;100.00;101316.41;1724783;83;21471;-61
2022/03/26 03:30:56;;;;;;;69.80;32.27;;;;;;;-2.79;100.00;101318.02;1730736;83;21006;-61
2022/03/26 03:33:25;;;;;;;84.17;32.83;;;;;;;-2.74;100.00;101317.29;1731629;82;21042;-61
2022/03/26 03:35:53;;;;;;;72.57;31.80;;;;;;;-2.76;100.00;101315.14;1732862;82;20994;-61
2022/03/26 03:38:21;;;;;;;75.87;31.40;;;;;;;-2.79;100.00;101316.34;1734892;82;21031;-61
2022/03/26 03:40:48;;;;;;;68.60;31.97;;;;;;;-2.76;100.00;101316.82;1735498;82;21090;-62
2022/03/26 03:43:15;;;;;;;77.33;31.73;;;;;;;-2.72;100.00;101314.40;1728147;82;21038;-61
2022/03/26 03:45:44;;;;;;;72.93;31.03;;;;;;;-2.68;100.00;101311.13;1700561;83;21147;-61
2022/03/26 03:48:13;;;;;;;69.43;31.40;;;;;;;-2.62;100.00;101318.87;1661496;85;21013;-61
2022/03/26 03:50:40;;;;;;;70.90;30.90;;;;;;;-2.72;100.00;101304.31;1701480;84;20993;-61
2022/03/26 03:53:08;;;;;;;70.57;30.90;;;;;;;-2.67;100.00;101309.48;1657670;86;20979;-61
2022/03/26 03:55:35;;;;;;;70.37;31.33;;;;;;;-2.55;100.00;101309.77;1696023;84;21045;-61
2022/03/26 03:58:03;;;;;;;73.90;30.77;;;;;;;-2.46;100.00;101303.65;1689082;85;21071;-61
2022/03/26 04:00:31;;;;;;;64.80;29.30;;;;;;;-2.48;100.00;101306.96;1692594;84;21026;-61
2022/03/26 04:03:00;;;;;;;70.60;30.00;;;;;;;-2.43;100.00;101306.67;1693723;84;20972;-61
2022/03/26 04:05:27;;;;;;;71.37;30.53;;;;;;;-2.36;100.00;101307.23;1688973;84;21007;-61
2022/03/26 04:07:54;;;;;;;69.93;30.73;;;;;;;-2.35;100.00;101313.99;1692161;84;20984;-61
2022/03/26 04:10:23;;;;;;;68.07;30.40;;;;;;;-2.40;100.00;101313.44;1689252;85;21020;-61
2022/03/26 04:12:50;;;;;;;68.17;31.23;;;;;;;-2.45;100.00;101315.45;1693773;84;21058;-61
2022/03/26 04:15:20;;;;;;;69.13;31.23;;;;;;;-2.35;100.00;101310.20;1692972;84;21568;-61
2022/03/26 04:17:51;;;;;;;77.10;31.90;;;;;;;-2.35;100.00;101316.52;1695663;84;20983;-61
2022/03/26 04:20:19;;;;;;;74.93;33.97;;;;;;;-2.34;100.00;101312.31;1692393;84;21012;-61
2022/03/26 04:22:46;;;;;;;77.33;32.43;;;;;;;-2.38;100.00;101312.64;1688764;85;21015;-61
2022/03/26 04:25:14;;;;;;;80.20;31.33;;;;;;;-2.28;100.00;101312.45;1690830;84;21210;-61
2022/03/26 04:27:44;;;;;;;81.00;31.23;;;;;;;-2.29;100.00;101317.03;1693186;84;21024;-61
2022/03/26 04:30:14;;;;;;;74.33;30.07;;;;;;;-2.26;100.00;101320.89;1688740;84;20992;-61
2022/03/26 04:32:43;;;;;;;65.07;28.80;;;;;;;-2.20;100.00;101319.77;1694305;84;21035;-61
2022/03/26 04:35:10;;;;;;;65.70;26.73;;;;;;;-2.13;100.00;101320.34;1695389;84;21023;-61
2022/03/26 04:37:39;;;;;;;65.57;27.47;;;;;;;-2.12;100.00;101319.52;1693130;84;21146;-61
2022/03/26 04:40:11;;;;;;;65.63;28.07;;;;;;;-2.04;100.00;101316.73;1696148;84;21067;-61
2022/03/26 04:42:39;;;;;;;62.80;26.97;;;;;;;-1.88;100.00;101312.02;1699223;84;20992;-61
2022/03/26 04:45:10;;;;;;;68.67;27.57;;;;;;;-1.79;100.00;101312.17;1671186;85;21004;-61
2022/03/26 04:47:38;;;;;;;64.33;28.27;;;;;;;-1.76;100.00;101316.03;1677414;84;20965;-61
2022/03/26 04:50:07;;;;;;;63.23;26.63;;;;;;;-1.61;100.00;101311.69;1702439;84;21088;-61
2022/03/26 04:52:35;;;;;;;63.67;27.83;;;;;;;-1.48;100.00;101307.31;1698880;84;20964;-61
2022/03/26 04:55:04;;;;;;;59.80;27.37;;;;;;;-1.45;100.00;101308.61;1677932;84;21083;-61
2022/03/26 04:57:32;;;;;;;60.30;27.20;;;;;;;-1.40;100.00;101318.78;1699450;84;21036;-61
2022/03/26 04:59:59;;;;;;;60.07;26.80;;;;;;;-1.29;100.00;101317.73;1699582;84;21545;-61
2022/03/26 05:02:26;;;;;;;64.93;27.50;;;;;;;-1.24;100.00;101311.95;1699203;84;21139;-61
2022/03/26 05:04:55;;;;;;;58.00;27.83;;;;;;;-1.14;100.00;101316.72;1699410;84;21048;-61
2022/03/26 05:10:10;;;;;;;57.53;27.27;;;;;;;-0.86;100.00;101314.23;1699464;84;21048;-61
2022/03/26 05:12:37;;;;;;;59.53;27.03;;;;;;;-0.76;100.00;101312.70;1699416;84;21055;-61
2022/03/26 05:15:08;;;;;;;61.20;27.37;;;;;;;-0.62;100.00;101307.86;1699500;84;21052;-61
2022/03/26 05:17:38;;;;;;;58.67;26.10;;;;;;;-0.54;100.00;101299.97;1699668;84;21572;-61
2022/03/26 05:20:12;;;;;;;61.97;27.00;;;;;;;-0.49;100.00;101304.66;1699488;84;21004;-61
2022/03/26 05:22:42;;;;;;;60.67;26.03;;;;;;;-0.33;100.00;101302.36;1699885;84;21531;-61
2022/03/26 05:25:10;;;;;;;57.67;27.03;;;;;;;-0.19;100.00;101306.34;1699430;84;21767;-61
2022/03/26 05:27:39;;;;;;;54.83;25.37;;;;;;;-0.09;100.00;101300.56;1699575;84;21098;-61
2022/03/26 05:30:10;;;;;;;53.87;25.40;;;;;;;0.07;100.00;101302.45;1671907;84;21507;-61
2022/03/26 05:32:37;;;;;;;57.10;25.20;;;;;;;0.19;100.00;101306.81;1697508;84;21055;-62
2022/03/26 05:35:11;;;;;;;56.35;26.07;;;;;;;0.35;100.00;101303.61;1690495;84;21479;-61
2022/03/26 05:37:35;;;;;;;59.42;25.68;;;;;;;0.44;100.00;101302.84;1689960;84;21065;-61
2022/03/26 05:40:07;;;;;;;53.60;26.50;;;;;;;0.57;100.00;101308.48;1689851;85;21096;-61
2022/03/26 05:42:36;;;;;;;58.45;27.27;;;;;;;0.75;100.00;101304.41;1689886;84;20982;-61
2022/03/26 05:45:06;;;;;;;60.63;27.02;;;;;;;0.88;100.00;101311.72;1690421;84;21475;-61
2022/03/26 05:47:34;;;;;;;58.20;27.35;;;;;;;1.07;100.00;101305.11;1690323;84;21002;-62
2022/03/26 05:50:04;;;;;;;59.77;26.45;;;;;;;1.26;100.00;101305.69;1691076;85;21038;-61
2022/03/26 05:52:31;;;;;;;57.27;25.30;;;;;;;1.47;100.00;101300.32;1690978;84;21023;-61
2022/03/26 05:54:59;;;;;;;57.03;26.10;;;;;;;1.73;100.00;101301.74;1690887;85;21081;-61
2022/03/26 05:57:26;;;;;;;56.00;25.57;;;;;;;1.96;100.00;101303.10;1691020;85;21109;-62
2022/03/26 05:59:54;;;;;;;50.28;25.62;;;;;;;2.20;100.00;101311.23;1690064;85;21022;-62
2022/03/26 06:02:22;;;;;;;47.17;24.52;;;;;;;2.46;100.00;101305.39;1686331;85;21058;-62
2022/03/26 06:04:50;;;;;;;55.08;27.87;;;;;;;2.69;100.00;101311.78;1677487;85;21020;-62
2022/03/26 06:07:18;;;;;;;53.30;29.30;;;;;;;2.96;100.00;101305.45;1683432;85;21116;-62
2022/03/26 06:09:47;;;;;;;53.63;25.52;;;;;;;3.22;100.00;101299.48;1686035;84;21043;-62
2022/03/26 06:12:14;;;;;;;52.60;24.02;;;;;;;3.45;100.00;101304.56;1685715;85;21022;-62
2022/03/26 06:14:43;;;;;;;47.53;24.50;;;;;;;3.61;100.00;101304.95;1685057;85;21568;-62
2022/03/26 06:17:10;;;;;;;57.78;25.95;;;;;;;3.88;100.00;101297.23;1683493;85;21025;-63
2022/03/26 06:19:39;;;;;;;56.83;27.52;;;;;;;4.12;100.00;101295.84;1681105;85;21136;-61
2022/03/26 06:22:08;;;;;;;68.15;34.55;;;;;;;4.44;100.00;101293.97;1681214;85;21017;-62
2022/03/26 06:24:37;;;;;;;99.40;50.15;;;;;;;4.65;100.00;101288.73;1681031;85;21069;-61
2022/03/26 06:27:05;;;;;;;60.78;29.18;;;;;;;4.86;100.00;101284.33;1681351;85;21053;-61
2022/03/26 06:29:34;;;;;;;58.28;29.77;;;;;;;5.09;100.00;101293.06;1681082;85;21077;-62
2022/03/26 06:32:04;;;;;;;62.45;32.33;;;;;;;5.27;100.00;101295.47;1681210;85;21097;-61
2022/03/26 06:34:31;;;;;;;60.75;29.10;;;;;;;5.40;100.00;101281.70;1690095;84;21056;-64
2022/03/26 06:37:01;;;;;;;63.08;32.50;;;;;;;5.59;99.58;101278.52;1697036;84;21036;-61
2022/03/26 06:39:28;;;;;;;60.92;33.10;;;;;;;5.79;98.32;101282.56;1696875;84;21044;-61
2022/03/26 06:41:57;;;;;;;65.72;32.93;;;;;;;6.00;97.47;101280.19;1696673;84;21091;-62
2022/03/26 06:44:24;;;;;;;62.93;29.45;;;;;;;6.22;95.67;101269.25;1697135;84;21517;-61
2022/03/26 06:46:54;;;;;;;60.67;30.48;;;;;;;6.38;94.44;101276.28;1696810;84;21099;-61
2022/03/26 06:49:21;;;;;;;66.00;31.42;;;;;;;6.58;92.95;101271.72;1696983;84;21024;-61
2022/03/26 06:51:48;;;;;;;84.45;39.95;;;;;;;6.77;91.85;101266.31;1693021;84;21063;-61
2022/03/26 06:54:17;;;;;;;57.20;29.67;;;;;;;7.00;91.10;101266.78;1693082;84;21066;-61
2022/03/26 06:56:45;;;;;;;61.45;30.80;;;;;;;7.27;90.38;101262.48;1694145;84;20988;-61
2022/03/26 06:59:14;;;;;;;73.47;34.65;;;;;;;7.47;89.38;101265.52;1687218;85;21139;-61
2022/03/26 07:01:44;;;;;;;56.13;29.98;;;;;;;7.66;88.69;101260.03;1690206;84;21015;-61
2022/03/26 07:04:12;;;;;;;55.88;29.80;;;;;;;7.90;87.99;101256.96;1689790;84;21051;-61
2022/03/26 07:06:41;;;;;;;59.75;29.05;;;;;;;8.12;85.66;101258.63;1695757;84;21011;-61
2022/03/26 07:09:10;;;;;;;51.63;27.25;;;;;;;8.25;84.57;101255.80;1691578;84;21034;-61
2022/03/26 07:11:37;;;;;;;45.63;22.62;;;;;;;8.46;83.48;101251.95;1691846;84;21547;-61
2022/03/26 07:14:04;;;;;;;39.55;21.15;;;;;;;8.65;83.32;101244.64;1690482;84;21019;-62
2022/03/26 07:16:33;;;;;;;38.75;20.75;;;;;;;8.83;81.86;101251.89;1689940;84;21024;-62
2022/03/26 07:19:00;;;;;;;35.92;21.65;;;;;;;9.03;80.95;101248.83;1690272;84;20976;-61
2022/03/26 07:21:27;;;;;;;36.10;20.57;;;;;;;9.22;79.87;101244.91;1692052;84;21058;-61
2022/03/26 07:23:54;;;;;;;43.63;24.32;;;;;;;9.39;78.96;101247.01;1690063;84;21048;-61
2022/03/26 07:26:23;;;;;;;35.48;19.10;;;;;;;9.60;76.88;101246.01;1689365;85;21579;-61
2022/03/26 07:28:51;;;;;;;26.30;15.65;;;;;;;9.83;75.01;101234.63;1689448;84;21039;-61
2022/03/26 07:31:18;;;;;;;22.95;13.88;;;;;;;10.15;73.91;101232.80;1692699;84;21063;-61
2022/03/26 07:33:46;;;;;;;20.70;12.80;;;;;;;10.43;72.58;101225.09;1692017;84;21570;-61
2022/03/26 07:36:15;;;;;;;21.68;13.05;;;;;;;10.61;70.40;101229.27;1692623;84;21020;-61
2022/03/26 07:38:42;;;;;;;19.07;12.28;;;;;;;10.83;70.33;101221.68;1687870;84;21103;-61
2022/03/26 07:41:11;;;;;;;25.52;14.78;;;;;;;10.86;69.34;101221.56;1696127;84;21038;-62
2022/03/26 07:43:38;;;;;;;37.73;18.25;;;;;;;11.05;68.46;101219.64;1687010;84;21043;-61
2022/03/26 07:46:06;;;;;;;21.48;14.05;;;;;;;11.31;68.01;101218.27;1688755;85;20992;-61
2022/03/26 07:48:33;;;;;;;27.77;16.55;;;;;;;11.35;67.07;101212.11;1690907;84;21555;-61
2022/03/26 07:51:00;;;;;;;50.63;31.55;;;;;;;11.36;66.24;101205.23;1688110;84;21075;-61
2022/03/26 07:53:29;;;;;;;62.10;30.62;;;;;;;11.39;65.52;101203.82;1687742;85;21508;-61
2022/03/26 07:55:58;;;;;;;37.20;20.52;;;;;;;11.39;65.07;101197.38;1684879;84;21570;-61
2022/03/26 07:58:26;;;;;;;37.55;19.67;;;;;;;11.48;64.84;101193.19;1687225;85;21091;-61
2022/03/26 08:00:53;;;;;;;19.40;12.60;;;;;;;11.70;64.45;101190.66;1687989;85;21548;-61
2022/03/26 08:03:21;;;;;;;18.40;11.80;;;;;;;11.67;64.19;101170.13;1689319;85;21068;-61
2022/03/26 08:05:48;;;;;;;17.17;11.28;;;;;;;11.61;63.52;101171.19;1689698;84;21480;-62
2022/03/26 08:08:15;;;;;;;18.77;12.50;;;;;;;11.74;62.54;101161.69;1688445;85;21059;-62
2022/03/26 08:10:44;;;;;;;16.95;11.10;;;;;;;11.89;62.01;101152.11;1688565;85;21079;-62
2022/03/26 08:13:11;;;;;;;28.42;13.38;;;;;;;12.08;60.42;101148.80;1688382;85;21083;-62
2022/03/26 08:15:41;;;;;;;16.25;11.95;;;;;;;12.21;59.76;101143.09;1688372;85;21007;-61
2022/03/26 08:18:09;;;;;;;18.60;12.33;;;;;;;12.10;60.17;101138.80;1688622;85;21067;-62
2022/03/26 08:20:39;;;;;;;22.77;12.60;;;;;;;12.22;59.95;101132.30;1689450;84;21046;-62
2022/03/26 08:23:06;;;;;;;22.07;14.53;;;;;;;12.36;59.23;101135.15;1687378;85;21511;-62
2022/03/26 08:28:20;;;;;;;17.77;11.70;;;;;;;12.47;58.01;101123.53;1692873;84;21103;-62
2022/03/26 08:30:49;;;;;;;20.75;12.05;;;;;;;12.47;56.91;101119.23;1693378;84;21058;-62
2022/03/26 08:33:17;;;;;;;14.18;10.05;;;;;;;12.52;55.63;101108.70;1686476;84;21095;-62
2022/03/26 08:35:44;;;;;;;17.23;9.38;;;;;;;12.62;55.31;101101.77;1682928;85;21082;-62
2022/03/26 08:38:12;;;;;;;14.93;9.13;;;;;;;12.67;54.05;101096.40;1671328;85;21043;-62
2022/03/26 08:40:41;;;;;;;14.63;8.60;;;;;;;12.69;54.13;101095.05;1679101;85;20984;-62
2022/03/26 08:43:10;;;;;;;14.68;8.80;;;;;;;12.73;54.04;101092.72;1675048;85;21036;-62
2022/03/26 08:45:40;;;;;;;17.35;8.90;;;;;;;12.80;52.16;101096.73;1676653;85;21062;-62
2022/03/26 08:48:08;;;;;;;21.75;11.20;;;;;;;12.84;52.25;101100.85;1676269;84;21043;-62
2022/03/26 08:50:37;;;;;;;21.42;9.65;;;;;;;13.00;51.14;101094.55;1678318;85;21188;-62
2022/03/26 08:53:05;;;;;;;15.25;9.10;;;;;;;13.20;50.82;101092.36;1677046;85;20987;-62
2022/03/26 08:55:34;;;;;;;13.10;8.95;;;;;;;13.29;50.59;101091.95;1671418;84;21059;-63
2022/03/26 08:58:02;;;;;;;16.02;8.60;;;;;;;13.22;50.24;101093.13;1674006;84;21020;-62
2022/03/26 09:00:30;;;;;;;13.72;9.13;;;;;;;13.21;50.17;101094.02;1673605;85;21079;-62
2022/03/26 09:02:59;;;;;;;14.95;9.58;;;;;;;13.17;50.04;101090.73;1676613;85;21024;-62
2022/03/26 09:05:26;;;;;;;16.75;10.35;;;;;;;13.30;50.47;101088.48;1672903;85;21020;-62
2022/03/26 09:07:54;;;;;;;14.33;9.93;;;;;;;13.36;49.93;101080.87;1682400;85;21015;-63
2022/03/26 09:10:23;;;;;;;23.18;10.50;;;;;;;13.36;51.17;101073.11;1672475;85;21492;-62
2022/03/26 09:12:52;;;;;;;21.62;11.73;;;;;;;13.53;51.24;101058.11;1686881;84;21163;-62
2022/03/26 09:15:19;;;;;;;22.48;11.38;;;;;;;13.76;50.57;101057.82;1686913;85;21512;-62
2022/03/26 09:17:47;;;;;;;20.85;12.15;;;;;;;13.70;49.83;101050.83;1686898;85;21607;-62
2022/03/26 09:20:15;;;;;;;18.82;12.45;;;;;;;13.72;50.68;101057.59;1678304;84;21147;-62
2022/03/26 09:22:44;;;;;;;21.93;12.30;;;;;;;13.61;50.42;101051.65;1673830;84;21032;-63
2022/03/26 09:25:13;;;;;;;18.77;11.90;;;;;;;13.67;50.12;101049.70;1673523;85;21927;-62
2022/03/26 09:27:42;;;;;;;27.52;13.45;;;;;;;13.88;50.38;101048.62;1672732;85;21024;-62
2022/03/26 09:30:10;;;;;;;19.10;12.65;;;;;;;13.88;50.02;101049.92;1676792;85;21023;-62
2022/03/26 09:32:38;;;;;;;20.20;13.35;;;;;;;13.85;50.42;101046.64;1674444;85;21000;-62
2022/03/26 09:35:06;;;;;;;22.02;13.38;;;;;;;13.74;50.51;101036.36;1684552;84;21110;-63
2022/03/26 09:37:34;;;;;;;29.18;14.93;;;;;;;13.78;51.24;101023.66;1675771;84;21058;-62
2022/03/26 09:40:04;;;;;;;24.47;14.03;;;;;;;13.97;50.98;101036.54;1713125;84;21051;-62
2022/03/26 09:42:33;;;;;;;26.60;14.50;;;;;;;14.01;51.10;101038.53;1712831;84;21023;-62
2022/03/26 09:45:03;;;;;;;24.30;15.40;;;;;;;14.06;51.61;101020.99;1713572;84;21603;-62
2022/03/26 09:47:30;;;;;;;31.73;16.40;;;;;;;14.24;50.96;101021.81;1713640;84;21047;-62
2022/03/26 09:49:57;;;;;;;28.30;16.37;;;;;;;14.40;49.80;101010.22;1687326;84;21067;-62
2022/03/26 09:52:26;;;;;;;30.57;16.10;;;;;;;14.29;50.21;101015.92;1713151;84;21036;-62
2022/03/26 09:54:58;;;;;;;28.27;16.00;;;;;;;14.22;50.13;101013.29;1699139;84;21064;-62
2022/03/26 09:57:25;;;;;;;23.90;15.20;;;;;;;14.43;50.41;100995.80;1694130;84;21005;-63
2022/03/26 09:59:53;;;;;;;28.38;15.83;;;;;;;14.40;50.24;100990.79;1700850;84;21115;-62
2022/03/26 10:02:20;;;;;;;27.13;15.00;;;;;;;14.47;50.51;100984.82;1706688;84;21452;-62
2022/03/26 10:04:49;;;;;;;25.52;15.78;;;;;;;14.56;50.05;100986.50;1702074;84;21091;-62
2022/03/26 10:07:16;;;;;;;35.65;16.25;;;;;;;14.53;50.59;100972.84;1702585;84;21046;-62
2022/03/26 10:09:46;;;;;;;34.05;18.15;;;;;;;14.63;50.15;100961.92;1701919;84;21064;-64
2022/03/26 10:12:27;;;;;;;24.87;13.38;;;;;;;14.68;50.39;100960.84;1702142;84;21028;-63
2022/03/26 10:15:04;;;;;;;22.73;13.10;;;;;;;14.51;48.97;100963.84;1700252;84;20964;-62
2022/03/26 10:17:37;;;;;;;16.77;11.38;;;;;;;14.77;49.73;100948.69;1698315;84;21056;-61
2022/03/26 10:20:12;;;;;;;23.87;12.20;;;;;;;14.83;48.29;100947.89;1696951;84;21069;-61
2022/03/26 10:22:45;;;;;;;20.12;11.05;;;;;;;14.75;48.79;100944.05;1688728;84;21072;-61
2022/03/26 10:25:22;;;;;;;19.45;11.50;;;;;;;14.73;48.47;100934.23;1688204;84;21044;-61
2022/03/26 10:27:55;;;;;;;20.48;11.22;;;;;;;14.91;48.77;100942.75;1688113;85;21088;-60
2022/03/26 10:33:20;;;;;;;;;;;;;;;15.07;48.60;100916.81;1690461;84;21116;-60
2022/03/26 10:35:55;;;;;;;22.13;12.07;;;;;;;15.13;46.53;100909.98;1657212;86;20393;-61
2022/03/26 10:38:40;;;;;;;21.62;11.83;;;;;;;15.29;47.01;100917.27;1660457;86;21052;-61
2022/03/26 10:41:09;;;;;;;18.50;12.43;;;;;;;15.22;46.14;100913.33;1688682;84;21008;-61
2022/03/26 10:43:39;;;;;;;20.50;11.80;;;;;;;15.17;46.01;100894.16;1688588;85;21106;-61
2022/03/26 10:46:07;;;;;;;21.37;11.83;;;;;;;15.25;46.21;100899.34;1688464;84;21059;-61
2022/03/26 10:48:37;;;;;;;18.85;12.35;;;;;;;15.30;45.85;100909.84;1688528;85;21594;-62
2022/03/26 10:51:15;;;;;;;22.82;11.80;;;;;;;15.38;46.38;100888.18;1688522;85;21134;-62
2022/03/26 10:53:46;;;;;;;18.02;12.00;;;;;;;15.55;46.33;100885.06;1688621;85;21059;-62
2022/03/26 10:56:15;;;;;;;20.70;12.05;;;;;;;15.63;45.83;100878.52;1688570;84;21102;-63
2022/03/26 10:58:44;;;;;;;26.93;12.90;;;;;;;15.77;45.42;100875.13;1688544;85;21514;-62
2022/03/26 11:01:12;;;;;;;26.17;12.55;;;;;;;15.80;44.70;100859.36;1688484;85;21035;-62
2022/03/26 11:03:42;;;;;;;18.15;10.88;;;;;;;15.73;44.93;100861.11;1688435;85;21059;-62
2022/03/26 11:06:13;;;;;;;23.77;12.30;;;;;;;15.65;45.04;100851.15;1688730;85;21556;-61
2022/03/26 11:08:43;;;;;;;17.40;11.93;;;;;;;15.67;44.39;100834.19;1688375;85;21142;-61
2022/03/26 11:11:12;;;;;;;18.87;12.13;;;;;;;15.80;44.74;100841.66;1688565;84;21059;-61
2022/03/26 11:13:48;;;;;;;22.62;12.05;;;;;;;15.94;44.64;100831.73;1688498;85;21532;-62
2022/03/26 11:16:24;;;;;;;23.05;11.97;;;;;;;16.10;44.22;100827.26;1688731;85;21089;-62
2022/03/26 11:19:40;;;;;;;21.52;11.73;;;;;;;16.19;43.80;100830.56;1688396;85;21114;-62
2022/03/26 11:22:43;;;;;;;24.15;12.23;;;;;;;16.34;43.11;100804.55;1688459;85;21118;-61